< Typhoon 196713 1967 Season Typhoon 196715 >
Typhoon 196714 (HOPE)
General InformationTrack Information on Google Maps || Disaster Info.ResourceGoogle EarthGE AnimationAtom FeedGeoJSON
Detalied Best Track (Time Zone = UTC)
Year Month Day Hour Lat. Long. Pressure (hPa) Wind (kt) Class Image Chart
1967 8 3 00 19.9 165.6 1008 0 2 -- Chart
1967 8 3 06 20.0 165.9 1006 0 2 -- Chart
1967 8 3 12 20.1 166.0 1006 0 2 -- Chart
1967 8 3 18 20.3 166.1 1003 0 2 -- Chart
1967 8 4 00 20.5 166.3 1002 0 2 -- Chart
1967 8 4 06 20.6 166.4 998 0 2 -- Chart
1967 8 4 12 20.7 166.6 996 0 9 -- Chart
1967 8 4 18 20.9 166.7 994 0 9 -- Chart
1967 8 5 00 21.3 167.0 994 0 9 -- Chart
1967 8 5 06 22.0 167.5 994 0 9 -- Chart
1967 8 5 12 23.5 168.6 988 0 9 -- Chart
1967 8 5 18 25.0 169.6 984 0 9 -- Chart
1967 8 6 00 26.6 170.5 984 0 9 -- Chart
1967 8 6 06 28.7 171.2 984 0 9 -- Chart
1967 8 6 12 31.0 172.2 985 0 9 -- Chart
1967 8 6 18 32.4 173.0 986 0 9 -- Chart
1967 8 7 00 33.5 174.0 986 0 9 -- Chart
1967 8 7 06 34.8 174.5 988 0 9 -- Chart
1967 8 7 12 35.7 175.1 988 0 9 -- Chart
1967 8 7 18 36.5 176.0 988 0 9 -- Chart
1967 8 8 00 36.3 176.7 988 0 9 -- Chart
1967 8 8 06 36.3 177.5 990 0 9 -- Chart
1967 8 8 12 36.8 177.8 990 0 9 -- Chart
1967 8 8 18 37.1 177.9 990 0 9 -- Chart
1967 8 9 00 37.6 177.5 992 0 9 -- Chart
1967 8 9 06 38.0 176.9 994 0 9 -- Chart
1967 8 9 12 38.5 176.0 994 0 9 -- Chart
1967 8 9 18 39.2 175.9 996 0 9 -- Chart
1967 8 10 00 40.3 175.8 996 0 9 -- Chart
1967 8 10 06 42.0 175.4 996 0 9 -- Chart
1967 8 10 12 44.0 175.0 996 0 9 -- Chart
1967 8 10 18 46.5 174.9 994 0 9 -- Chart
1967 8 11 00 48.7 174.8 990 0 9 -- Chart
1967 8 11 06 51.6 173.8 988 0 6 -- Chart
1967 8 11 12 53.2 173.1 992 0 6 -- Chart
1967 8 11 18 54.0 171.0 990 0 6 -- Chart
Japan Meteorological Agency Best Track Data | Correction Date : 1989-06-01
< Typhoon 196713 1967 Season Typhoon 196715 >

Help